createdAt,value
2018-05-18T00:01:49.015Z,13.58
2018-05-18T00:05:12.352Z,13.61
2018-05-18T00:08:36.439Z,13.74
2018-05-18T00:11:59.736Z,13.61
2018-05-18T00:15:23.082Z,13.50
2018-05-18T00:18:47.219Z,13.55
2018-05-18T00:22:11.351Z,13.45
2018-05-18T00:25:34.683Z,13.43
2018-05-18T00:28:57.959Z,13.27
2018-05-18T00:32:21.252Z,13.36
2018-05-18T00:35:44.530Z,13.39
2018-05-18T00:39:07.806Z,13.42
2018-05-18T00:42:31.985Z,13.52
2018-05-18T00:45:55.264Z,13.57
2018-05-18T00:49:18.633Z,13.56
2018-05-18T00:52:41.969Z,13.39
2018-05-18T00:56:05.252Z,13.39
2018-05-18T00:59:28.587Z,13.43
2018-05-18T01:02:51.843Z,13.56
2018-05-18T01:06:15.189Z,13.25
2018-05-18T01:09:38.475Z,13.49
2018-05-18T01:13:01.895Z,13.56
2018-05-18T01:16:25.179Z,13.61
2018-05-18T01:19:49.273Z,13.36
2018-05-18T01:23:12.613Z,13.37
2018-05-18T01:26:36.697Z,13.32
2018-05-18T01:30:00.809Z,13.33
2018-05-18T01:33:24.441Z,13.52
2018-05-18T01:36:47.726Z,13.31
2018-05-18T01:40:11.019Z,13.44
2018-05-18T01:43:34.372Z,13.33
2018-05-18T01:46:57.645Z,13.20
2018-05-18T01:50:20.935Z,13.46
2018-05-18T01:53:44.201Z,13.26
2018-05-18T01:57:08.312Z,13.34
2018-05-18T02:00:31.642Z,13.21
2018-05-18T02:03:55.759Z,13.20
2018-05-18T02:07:19.097Z,13.23
2018-05-18T02:10:43.179Z,12.85
2018-05-18T02:14:06.457Z,12.78
2018-05-18T02:17:29.827Z,12.76
2018-05-18T02:20:53.081Z,12.75
2018-05-18T02:24:17.205Z,12.83
2018-05-18T02:27:40.574Z,12.67
2018-05-18T02:31:03.823Z,12.72
2018-05-18T02:34:27.918Z,12.91
2018-05-18T02:37:51.201Z,12.94
2018-05-18T02:41:14.476Z,12.87
2018-05-18T02:44:38.567Z,12.66
2018-05-18T02:48:01.840Z,12.84
2018-05-18T02:51:25.129Z,12.64
2018-05-18T02:54:48.430Z,13.01
2018-05-18T02:58:11.772Z,12.94
2018-05-18T03:01:35.855Z,12.82
2018-05-18T03:04:59.218Z,13.12
2018-05-18T03:08:22.492Z,13.27
2018-05-18T03:11:45.760Z,13.18
2018-05-18T03:15:09.807Z,13.17
2018-05-18T03:18:33.074Z,13.06
2018-05-18T03:21:57.168Z,13.25
2018-05-18T03:25:20.474Z,13.23
2018-05-18T03:28:43.817Z,13.06
2018-05-18T03:32:07.169Z,13.12
2018-05-18T03:35:30.459Z,13.26
2018-05-18T03:38:53.816Z,13.49
2018-05-18T03:42:17.243Z,13.41
2018-05-18T03:45:40.598Z,13.47
2018-05-18T03:49:03.880Z,13.59
2018-05-18T03:52:27.286Z,13.53
2018-05-18T03:55:51.395Z,13.51
2018-05-18T03:59:14.661Z,13.45
2018-05-18T04:02:55.853Z,13.52
2018-05-18T04:06:36.949Z,13.45
2018-05-18T04:10:00.213Z,13.35
2018-05-18T04:13:23.499Z,13.68
2018-05-18T04:16:46.811Z,13.67
2018-05-18T04:20:10.169Z,13.49
2018-05-18T04:23:33.571Z,13.76
2018-05-18T04:26:57.667Z,13.62
2018-05-18T04:30:21.046Z,13.68
2018-05-18T04:33:44.392Z,13.66
2018-05-18T04:37:07.747Z,13.66
2018-05-18T04:40:31.032Z,13.69
2018-05-18T04:43:54.363Z,13.93
2018-05-18T04:47:17.667Z,13.67
2018-05-18T04:50:40.991Z,13.87
2018-05-18T04:54:05.046Z,13.72
2018-05-18T04:57:28.329Z,13.86
2018-05-18T05:00:51.694Z,13.94
2018-05-18T05:04:15.040Z,14.05
2018-05-18T05:07:38.408Z,14.04
2018-05-18T05:11:01.772Z,14.00
2018-05-18T05:14:25.116Z,14.16
2018-05-18T05:17:48.540Z,14.36
2018-05-18T05:21:13.960Z,14.26
2018-05-18T05:24:38.077Z,14.29
2018-05-18T05:28:01.369Z,14.32
2018-05-18T05:31:24.650Z,14.62
2018-05-18T05:34:47.942Z,14.38
2018-05-18T05:38:11.330Z,14.48
2018-05-18T05:41:36.165Z,14.44
2018-05-18T05:44:59.460Z,14.23
2018-05-18T05:48:22.775Z,14.50
2018-05-18T05:51:46.828Z,14.49
2018-05-18T05:55:10.136Z,14.65
2018-05-18T05:58:33.441Z,15.18
2018-05-18T06:01:57.523Z,15.18
2018-05-18T06:05:21.633Z,15.16
2018-05-18T06:08:44.895Z,14.95
2018-05-18T06:12:09.020Z,14.84
2018-05-18T06:15:32.218Z,15.00
2018-05-18T06:18:55.508Z,15.01
2018-05-18T06:22:18.786Z,15.03
2018-05-18T06:25:43.414Z,14.98
2018-05-18T06:29:07.480Z,14.99
2018-05-18T06:32:30.825Z,14.98
2018-05-18T06:35:54.227Z,15.22
2018-05-18T06:39:18.295Z,14.99
2018-05-18T06:42:43.079Z,15.19
2018-05-18T06:46:06.381Z,15.36
2018-05-18T06:49:29.692Z,15.30
2018-05-18T06:52:53.794Z,15.47
2018-05-18T06:56:17.078Z,15.65
2018-05-18T06:59:41.380Z,15.78
2018-05-18T07:03:04.694Z,15.71
2018-05-18T07:06:27.978Z,15.66
2018-05-18T07:09:52.766Z,15.99
2018-05-18T07:13:16.048Z,15.94
2018-05-18T07:16:39.365Z,15.96
2018-05-18T07:20:03.541Z,16.04
2018-05-18T07:23:27.589Z,16.38
2018-05-18T07:26:50.887Z,16.49
2018-05-18T07:30:14.937Z,16.22
2018-05-18T07:33:38.299Z,16.74
2018-05-18T07:37:01.631Z,16.61
2018-05-18T07:40:25.751Z,16.41
2018-05-18T07:43:49.118Z,16.56
2018-05-18T07:47:13.181Z,16.82
2018-05-18T07:50:36.466Z,17.03
2018-05-18T07:54:01.634Z,17.03
2018-05-18T07:57:24.917Z,16.99
2018-05-18T08:00:48.221Z,17.14
2018-05-18T08:04:11.497Z,16.96
2018-05-18T08:07:34.841Z,16.43
2018-05-18T08:10:58.154Z,16.52
2018-05-18T08:14:21.467Z,16.35
2018-05-18T08:17:45.528Z,15.81
2018-05-18T08:21:08.814Z,15.86
2018-05-18T08:24:32.087Z,16.10
2018-05-18T08:27:55.392Z,16.26
2018-05-18T08:31:19.462Z,16.38
2018-05-18T08:34:42.736Z,16.30
2018-05-18T08:38:06.024Z,16.76
2018-05-18T08:41:29.309Z,16.33
2018-05-18T08:44:52.739Z,16.54
2018-05-18T08:48:16.062Z,16.91
2018-05-18T08:51:40.114Z,16.99
2018-05-18T08:55:03.406Z,16.83
2018-05-18T08:58:26.685Z,16.70
2018-05-18T09:01:50.002Z,17.02
2018-05-18T09:05:14.043Z,16.83
2018-05-18T09:08:37.455Z,17.21
2018-05-18T09:12:00.754Z,16.93
2018-05-18T09:15:24.038Z,17.05
2018-05-18T09:18:47.324Z,17.27
2018-05-18T09:22:10.705Z,17.54
2018-05-18T09:25:34.771Z,18.08
2018-05-18T09:28:58.071Z,18.55
2018-05-18T09:32:22.266Z,18.00
2018-05-18T09:35:45.694Z,17.83
2018-05-18T09:39:08.978Z,17.90
2018-05-18T09:42:32.409Z,17.78
2018-05-18T09:45:55.697Z,18.00
2018-05-18T09:49:18.974Z,18.37
2018-05-18T09:52:42.287Z,18.36
2018-05-18T09:56:06.344Z,18.07
2018-05-18T09:59:29.623Z,18.40
2018-05-18T10:02:52.947Z,17.85
2018-05-18T10:06:16.995Z,17.63
2018-05-18T10:09:40.276Z,17.52
2018-05-18T10:13:03.560Z,17.91
2018-05-18T10:16:27.006Z,18.12
2018-05-18T10:19:50.278Z,18.02
2018-05-18T10:23:13.557Z,17.71
2018-05-18T10:26:36.923Z,17.82
2018-05-18T10:30:00.220Z,17.44
2018-05-18T10:33:23.526Z,17.77
2018-05-18T10:36:47.611Z,18.23
2018-05-18T10:40:11.735Z,18.26
2018-05-18T10:43:35.180Z,19.06
2018-05-18T10:46:58.459Z,18.81
2018-05-18T10:50:21.764Z,18.70
2018-05-18T10:53:46.930Z,18.71
2018-05-18T10:57:10.213Z,19.19
2018-05-18T11:00:34.357Z,19.24
2018-05-18T11:03:57.652Z,19.53
2018-05-18T11:07:20.942Z,19.54
2018-05-18T11:10:44.998Z,19.59
2018-05-18T11:14:08.341Z,19.59
2018-05-18T11:17:31.584Z,19.02
2018-05-18T11:20:54.873Z,19.53
2018-05-18T11:24:18.203Z,19.44
2018-05-18T11:27:41.518Z,20.24
2018-05-18T11:31:05.582Z,19.62
2018-05-18T11:34:28.866Z,19.61
2018-05-18T11:37:52.248Z,19.82
2018-05-18T11:41:16.277Z,20.15
2018-05-18T11:44:39.603Z,20.51
2018-05-18T11:48:02.943Z,20.71
2018-05-18T11:51:26.957Z,20.29
2018-05-18T11:54:50.360Z,19.95
2018-05-18T11:58:13.665Z,20.38
2018-05-18T12:01:36.982Z,20.65
2018-05-18T12:05:01.786Z,20.74
2018-05-18T12:08:25.166Z,20.58
2018-05-18T12:11:48.504Z,21.25
2018-05-18T12:15:11.848Z,21.37
2018-05-18T12:18:35.199Z,21.14
2018-05-18T12:21:58.486Z,21.40
2018-05-18T12:25:21.785Z,21.70
2018-05-18T12:28:45.069Z,21.83
2018-05-18T12:32:09.128Z,22.00
2018-05-18T12:35:32.417Z,22.06
2018-05-18T12:38:55.710Z,21.80
2018-05-18T12:42:19.008Z,22.03
2018-05-18T12:45:42.292Z,22.26
2018-05-18T12:49:05.557Z,21.83
2018-05-18T12:52:28.837Z,22.17
2018-05-18T12:55:52.192Z,21.99
2018-05-18T12:59:16.539Z,22.17
2018-05-18T13:02:40.760Z,21.99
2018-05-18T13:06:04.806Z,21.83
2018-05-18T13:09:28.851Z,22.21
2018-05-18T13:12:52.899Z,22.27
2018-05-18T13:16:16.232Z,22.00
2018-05-18T13:19:39.490Z,22.82
2018-05-18T13:23:02.781Z,22.78
2018-05-18T13:26:26.057Z,22.72
2018-05-18T13:29:49.334Z,22.51
2018-05-18T13:33:12.758Z,22.86
2018-05-18T13:36:36.041Z,22.28
2018-05-18T13:39:59.334Z,22.42
2018-05-18T13:43:22.627Z,22.80
2018-05-18T13:46:46.037Z,22.69
2018-05-18T13:50:09.327Z,22.53
2018-05-18T13:53:32.629Z,22.73
2018-05-18T13:56:55.975Z,22.49
2018-05-18T14:00:19.389Z,22.19
2018-05-18T14:03:42.642Z,22.67
2018-05-18T14:07:06.757Z,22.46
2018-05-18T14:10:30.041Z,22.78
2018-05-18T14:13:53.332Z,22.91
2018-05-18T14:17:16.640Z,23.21
2018-05-18T14:20:39.932Z,22.84
2018-05-18T14:24:04.036Z,23.08
2018-05-18T14:27:27.311Z,22.92
2018-05-18T14:30:50.609Z,23.50
2018-05-18T14:34:13.899Z,23.32
2018-05-18T14:37:37.182Z,23.78
2018-05-18T14:41:00.509Z,23.96
2018-05-18T14:44:24.556Z,23.49
2018-05-18T14:47:47.876Z,24.06
2018-05-18T14:51:12.074Z,23.94
2018-05-18T14:54:36.100Z,23.45
2018-05-18T14:57:59.371Z,23.53
2018-05-18T15:01:22.849Z,23.81
2018-05-18T15:04:46.133Z,23.56
2018-05-18T15:08:09.405Z,23.63
2018-05-18T15:11:33.543Z,24.07
2018-05-18T15:14:56.949Z,24.05
2018-05-18T15:18:20.378Z,23.84
2018-05-18T15:21:43.805Z,24.27
2018-05-18T15:25:07.085Z,24.15
2018-05-18T15:28:30.382Z,24.43
2018-05-18T15:31:53.664Z,24.18
2018-05-18T15:35:16.949Z,24.46
2018-05-18T15:38:40.212Z,24.13
2018-05-18T15:42:03.517Z,22.48
2018-05-18T15:45:26.804Z,22.22
2018-05-18T15:48:50.103Z,23.57
2018-05-18T15:52:13.375Z,23.32
2018-05-18T15:55:36.673Z,23.37
2018-05-18T15:58:59.937Z,23.59
2018-05-18T16:02:23.221Z,23.49
2018-05-18T16:05:53.636Z,23.63
2018-05-18T16:09:16.992Z,23.33
2018-05-18T16:12:40.357Z,24.36
2018-05-18T16:16:03.866Z,23.53
2018-05-18T16:19:27.252Z,24.80
2018-05-18T16:23:02.003Z,24.00
2018-05-18T16:26:28.403Z,23.30
2018-05-18T16:29:51.818Z,23.66
2018-05-18T16:33:22.950Z,24.40
2018-05-18T16:36:46.765Z,23.84
2018-05-18T16:40:10.147Z,23.57
2018-05-18T16:43:33.909Z,24.18
2018-05-18T16:46:57.250Z,24.03
2018-05-18T16:50:21.245Z,23.78
2018-05-18T16:53:45.269Z,24.27
2018-05-18T16:57:08.580Z,24.16
2018-05-18T17:00:31.902Z,23.12
2018-05-18T17:03:55.565Z,23.69
2018-05-18T17:07:19.067Z,24.48
2018-05-18T17:10:42.393Z,23.91
2018-05-18T17:14:06.499Z,23.52
2018-05-18T17:17:29.790Z,23.57
2018-05-18T17:20:53.068Z,23.55
2018-05-18T17:24:16.356Z,23.33
2018-05-18T17:27:39.623Z,23.05
2018-05-18T17:31:03.065Z,23.44
2018-05-18T17:34:26.348Z,23.25
2018-05-18T17:37:49.659Z,23.32
2018-05-18T17:41:13.008Z,23.35
2018-05-18T17:44:36.516Z,22.83
2018-05-18T17:47:59.933Z,23.03
2018-05-18T17:51:23.229Z,22.93
2018-05-18T17:54:46.553Z,22.75
2018-05-18T17:58:09.937Z,22.11
2018-05-18T18:01:35.014Z,22.51
2018-05-18T18:04:59.834Z,21.77
2018-05-18T18:08:23.148Z,21.43
2018-05-18T18:11:46.630Z,21.07
2018-05-18T18:15:09.901Z,20.78
2018-05-18T18:18:33.293Z,20.55
2018-05-18T18:21:56.617Z,20.49
2018-05-18T18:25:19.953Z,20.51
2018-05-18T18:28:45.305Z,20.34
2018-05-18T18:32:10.774Z,20.35
2018-05-18T18:35:34.061Z,20.30
2018-05-18T18:38:57.561Z,20.19
2018-05-18T18:42:20.934Z,19.84
2018-05-18T18:45:44.357Z,19.68
2018-05-18T18:49:07.686Z,19.57
2018-05-18T18:52:30.999Z,19.43
2018-05-18T18:55:54.351Z,19.55
2018-05-18T18:59:17.699Z,19.33
2018-05-18T19:02:40.982Z,19.29
2018-05-18T19:06:05.077Z,19.20
2018-05-18T19:09:28.418Z,19.06
2018-05-18T19:12:51.832Z,19.09
2018-05-18T19:16:15.173Z,19.08
2018-05-18T19:19:40.046Z,18.90
2018-05-18T19:23:03.762Z,18.85
2018-05-18T19:26:27.100Z,18.73
2018-05-18T19:29:50.473Z,18.66
2018-05-18T19:33:13.814Z,18.52
2018-05-18T19:36:37.233Z,18.46
2018-05-18T19:40:00.456Z,18.49
2018-05-18T19:43:23.769Z,18.37
2018-05-18T19:46:47.107Z,18.30
2018-05-18T19:50:10.428Z,18.25
2018-05-18T19:53:33.774Z,18.33
2018-05-18T19:56:57.869Z,18.54
2018-05-18T20:00:22.383Z,18.44
2018-05-18T20:03:46.479Z,18.17
2018-05-18T20:07:09.808Z,18.17
2018-05-18T20:10:33.141Z,18.33
2018-05-18T20:13:56.498Z,18.12
2018-05-18T20:17:19.847Z,18.18
2018-05-18T20:20:43.321Z,17.81
2018-05-18T20:24:08.230Z,17.81
2018-05-18T20:27:31.551Z,17.57
2018-05-18T20:30:54.863Z,17.69
2018-05-18T20:34:18.159Z,17.54
2018-05-18T20:37:41.484Z,17.55
2018-05-18T20:41:05.619Z,17.42
2018-05-18T20:44:28.985Z,17.49
2018-05-18T20:47:52.328Z,17.50
2018-05-18T20:51:15.689Z,17.38
2018-05-18T20:54:39.300Z,17.24
2018-05-18T20:58:03.406Z,17.15
2018-05-18T21:01:26.804Z,16.87
2018-05-18T21:04:50.928Z,17.11
2018-05-18T21:08:14.274Z,16.91
2018-05-18T21:11:37.569Z,16.80
2018-05-18T21:15:00.935Z,16.85
2018-05-18T21:18:24.415Z,16.72
2018-05-18T21:21:47.705Z,16.54
2018-05-18T21:25:11.209Z,16.28
2018-05-18T21:28:34.617Z,16.35
2018-05-18T21:31:58.801Z,16.19
2018-05-18T21:35:22.134Z,16.23
2018-05-18T21:38:45.438Z,16.15
2018-05-18T21:42:08.719Z,16.43
2018-05-18T21:45:32.031Z,16.28
2018-05-18T21:48:55.399Z,16.15
2018-05-18T21:52:19.660Z,16.08
2018-05-18T21:55:42.945Z,16.25
2018-05-18T21:59:06.283Z,16.24
2018-05-18T22:02:29.589Z,16.09
2018-05-18T22:05:52.865Z,15.97
2018-05-18T22:09:16.223Z,15.70
2018-05-18T22:12:39.505Z,15.67
2018-05-18T22:16:02.779Z,15.82
2018-05-18T22:19:26.913Z,15.66
2018-05-18T22:22:50.947Z,15.84
2018-05-18T22:26:15.041Z,15.66
2018-05-18T22:29:38.347Z,15.56
2018-05-18T22:33:01.800Z,15.45
2018-05-18T22:36:25.877Z,15.43
2018-05-18T22:39:49.334Z,15.64
2018-05-18T22:43:12.737Z,15.56
2018-05-18T22:46:36.142Z,15.52
2018-05-18T22:49:59.566Z,15.61
2018-05-18T22:53:22.994Z,15.61
2018-05-18T22:56:46.293Z,15.41
2018-05-18T23:00:09.657Z,15.39
2018-05-18T23:03:34.537Z,15.53
2018-05-18T23:06:57.818Z,15.35
2018-05-18T23:10:21.163Z,15.22
2018-05-18T23:13:44.446Z,15.14
2018-05-18T23:17:07.817Z,15.23
2018-05-18T23:20:31.239Z,15.25
2018-05-18T23:23:54.509Z,15.21
2018-05-18T23:27:17.807Z,15.24
2018-05-18T23:30:41.096Z,15.18
2018-05-18T23:34:04.430Z,15.28
2018-05-18T23:37:27.777Z,15.12
2018-05-18T23:40:51.887Z,15.07
2018-05-18T23:44:15.325Z,14.98
2018-05-18T23:47:38.652Z,15.00
2018-05-18T23:51:02.772Z,14.86
2018-05-18T23:54:26.178Z,14.86
2018-05-18T23:57:49.459Z,14.83
